Time;durP1;ratioP1;P1;durP2;ratioP2;P2;SDS_P1;SDS_P2;PMS_P1;PMS_P2;Temp;Humidity;BMP_temperature;BMP_pressure;BME280_temperature;BME280_humidity;BME280_pressure;Samples;Min_cycle;Max_cycle;Signal;HPM_P1;HPM_P2
2023/07/03 00:00:25;;;;;;;19.92;5.03;;;;;;;;;;5053277;28;19928;-82
2023/07/03 00:02:52;;;;;;;19.40;5.60;;;;;;;;;;5068241;28;20056;-81
2023/07/03 00:05:18;;;;;;;16.85;4.97;;;;;;;;;;5040133;28;20056;-82
2023/07/03 00:07:46;;;;;;;14.73;5.43;;;;;;;;;;5052471;28;20044;-81
2023/07/03 00:10:13;;;;;;;17.35;5.00;;;;;;;;;;5039377;28;20055;-82
2023/07/03 00:12:39;;;;;;;19.15;5.45;;;;;;;;;;5055075;28;20099;-82
2023/07/03 00:15:05;;;;;;;;;;;;;;;;;;5073134;28;20139;-81
2023/07/03 00:17:31;;;;;;;20.13;4.95;;;;;;;;;;5053047;28;19970;-81
2023/07/03 00:19:57;;;;;;;;;;;;;;;;;;5035623;28;20088;-82
2023/07/03 00:22:23;;;;;;;22.00;5.38;;;;;;;;;;5036269;28;19999;-81
2023/07/03 00:24:49;;;;;;;19.90;5.35;;;;;;;;;;5052481;28;20163;-82
2023/07/03 00:27:15;;;;;;;19.60;5.30;;;;;;;;;;5072686;28;20049;-82
2023/07/03 00:29:41;;;;;;;;;;;;;;;;;;5056496;28;20451;-82
2023/07/03 00:32:07;;;;;;;13.18;4.75;;;;;;;;;;5052309;28;19925;-82
2023/07/03 00:34:33;;;;;;;17.35;5.03;;;;;;;;;;5070976;28;20044;-82
2023/07/03 00:36:59;;;;;;;;;;;;;;;;;;5056095;28;20040;-82
2023/07/03 00:39:25;;;;;;;18.25;4.93;;;;;;;;;;5068502;28;19931;-82
2023/07/03 00:41:51;;;;;;;;;;;;;;;;;;5072873;28;20127;-81
2023/07/03 00:44:19;;;;;;;23.10;4.80;;;;;;;;;;5051349;28;20070;-82
2023/07/03 00:46:50;;;;;;;23.38;5.13;;;;;;;;;;5066808;28;20138;-82
2023/07/03 00:49:16;;;;;;;20.45;5.13;;;;;;;;;;5071108;28;20059;-82
2023/07/03 00:51:44;;;;;;;17.73;5.15;;;;;;;;;;5052486;28;20409;-82
2023/07/03 00:54:11;;;;;;;17.45;4.63;;;;;;;;;;5051331;28;20628;-82
2023/07/03 00:56:37;;;;;;;21.92;5.70;;;;;;;;;;5035643;28;20130;-83
2023/07/03 00:59:03;;;;;;;;;;;;;;;;;;5036698;28;20040;-82
2023/07/03 01:01:34;;;;;;;19.23;4.93;;;;;;;;;;5055299;28;19927;-82
2023/07/03 01:04:35;;;;;;;16.73;4.85;;;;;;;;;;5070381;28;20053;-82
2023/07/03 01:07:03;;;;;;;21.83;4.93;;;;;;;;;;4977918;28;20140;-82
2023/07/03 01:09:32;;;;;;;19.48;4.95;;;;;;;;;;5043076;28;20395;-82
2023/07/03 01:11:58;;;;;;;21.05;4.80;;;;;;;;;;5068156;28;20151;-81
2023/07/03 01:14:25;;;;;;;20.08;5.50;;;;;;;;;;5051354;28;20057;-83
2023/07/03 01:16:52;;;;;;;20.15;4.72;;;;;;;;;;5068686;28;20053;-83
2023/07/03 01:19:18;;;;;;;;;;;;;;;;;;5067644;28;20686;-83
2023/07/03 01:21:53;;;;;;;21.20;5.18;;;;;;;;;;5053983;28;19939;-82
2023/07/03 01:24:42;;;;;;;18.15;5.13;;;;;;;;;;5050685;28;20076;-83
2023/07/03 01:27:10;;;;;;;24.40;4.78;;;;;;;;;;5042165;28;20056;-82
2023/07/03 01:29:36;;;;;;;23.70;5.28;;;;;;;;;;5071248;28;20056;-82
2023/07/03 01:32:04;;;;;;;23.17;5.05;;;;;;;;;;5054169;28;20132;-82
2023/07/03 01:34:31;;;;;;;25.63;5.32;;;;;;;;;;5070715;28;20045;-83
2023/07/03 01:36:58;;;;;;;22.73;4.78;;;;;;;;;;5071800;28;20045;-83
2023/07/03 01:39:25;;;;;;;23.30;4.75;;;;;;;;;;5054099;28;20048;-83
2023/07/03 01:41:51;;;;;;;19.13;4.82;;;;;;;;;;5071202;28;20558;-83
2023/07/03 01:44:18;;;;;;;21.23;4.50;;;;;;;;;;5069274;28;20405;-82
2023/07/03 01:46:44;;;;;;;17.92;4.65;;;;;;;;;;5035051;28;20148;-83
2023/07/03 01:49:14;;;;;;;20.70;4.93;;;;;;;;;;5069107;28;20053;-83
2023/07/03 01:51:49;;;;;;;18.98;4.97;;;;;;;;;;5051518;28;20190;-83
2023/07/03 01:54:21;;;;;;;20.10;5.18;;;;;;;;;;5050197;28;20102;-83
2023/07/03 01:56:50;;;;;;;23.70;5.40;;;;;;;;;;5067799;28;20436;-83
2023/07/03 01:59:18;;;;;;;24.17;4.93;;;;;;;;;;5053588;28;20052;-82
2023/07/03 02:01:52;;;;;;;28.08;5.03;;;;;;;;;;5071118;28;20517;-82
2023/07/03 02:04:27;;;;;;;19.58;6.22;;;;;;;;;;5069135;28;20131;-82
2023/07/03 02:06:54;;;;;;;18.98;4.53;;;;;;;;;;5070981;28;20127;-83
2023/07/03 02:09:20;;;;;;;24.55;5.60;;;;;;;;;;5068076;28;20049;-83
2023/07/03 02:11:51;;;;;;;26.77;4.82;;;;;;;;;;5066257;28;20084;-83
2023/07/03 02:14:17;;;;;;;22.33;5.35;;;;;;;;;;5052376;28;20056;-82
2023/07/03 02:16:46;;;;;;;24.38;5.53;;;;;;;;;;5037538;28;20059;-83
2023/07/03 02:19:14;;;;;;;24.23;5.70;;;;;;;;;;5036646;28;20056;-83
2023/07/03 02:21:41;;;;;;;18.52;4.93;;;;;;;;;;5063665;28;20049;-83
2023/07/03 02:24:08;;;;;;;;;;;;;;;;;;5049980;28;20143;-83
2023/07/03 02:26:34;;;;;;;25.20;5.00;;;;;;;;;;5050822;28;19940;-83
2023/07/03 02:29:00;;;;;;;22.65;5.32;;;;;;;;;;5066637;28;20052;-83
2023/07/03 02:31:26;;;;;;;21.02;4.72;;;;;;;;;;5066701;28;20135;-84
2023/07/03 02:33:52;;;;;;;;;;;;;;;;;;5069292;28;20055;-84
2023/07/03 02:36:18;;;;;;;22.98;5.07;;;;;;;;;;5053380;28;19924;-84
2023/07/03 02:38:44;;;;;;;;;;;;;;;;;;5048762;28;20409;-84
2023/07/03 02:41:10;;;;;;;21.23;4.53;;;;;;;;;;5049982;28;19936;-83
2023/07/03 02:43:36;;;;;;;25.02;4.80;;;;;;;;;;5050023;28;20179;-83
2023/07/03 02:46:03;;;;;;;24.83;5.35;;;;;;;;;;5045082;28;20053;-85
2023/07/03 02:48:30;;;;;;;22.58;4.63;;;;;;;;;;5032146;28;20052;-84
2023/07/03 02:50:56;;;;;;;26.60;5.22;;;;;;;;;;5049897;28;20123;-83
2023/07/03 02:53:22;;;;;;;26.10;4.93;;;;;;;;;;5069201;28;20041;-83
2023/07/03 02:55:49;;;;;;;25.15;5.00;;;;;;;;;;5069534;28;20113;-85
2023/07/03 02:58:15;;;;;;;28.27;5.20;;;;;;;;;;5069404;28;20044;-84
2023/07/03 03:00:41;;;;;;;31.35;5.75;;;;;;;;;;5070379;28;20048;-84
2023/07/03 03:03:07;;;;;;;24.63;5.50;;;;;;;;;;5066653;28;20040;-82
2023/07/03 03:05:33;;;;;;;22.98;4.95;;;;;;;;;;5036971;28;20056;-85
2023/07/03 03:07:59;;;;;;;25.65;6.10;;;;;;;;;;5033662;28;20053;-85
2023/07/03 03:10:25;;;;;;;;;;;;;;;;;;5033177;28;20051;-85
2023/07/03 03:12:51;;;;;;;29.17;6.00;;;;;;;;;;5033208;28;19925;-83
2023/07/03 03:15:17;;;;;;;;;;;;;;;;;;5049492;28;20049;-83
2023/07/03 03:17:44;;;;;;;26.75;6.25;;;;;;;;;;5032824;28;20277;-84
2023/07/03 03:20:11;;;;;;;20.92;5.97;;;;;;;;;;5049396;28;20052;-84
2023/07/03 03:22:37;;;;;;;30.30;7.05;;;;;;;;;;5046387;28;20521;-84
2023/07/03 03:25:03;;;;;;;27.15;6.53;;;;;;;;;;5054178;28;20062;-84
2023/07/03 03:27:29;;;;;;;22.92;6.00;;;;;;;;;;5051275;28;20045;-83
2023/07/03 03:29:55;;;;;;;27.00;5.88;;;;;;;;;;5066468;28;20044;-84
2023/07/03 03:32:21;;;;;;;25.63;6.53;;;;;;;;;;5066114;28;20102;-83
2023/07/03 03:34:47;;;;;;;26.15;6.25;;;;;;;;;;5032185;28;20086;-84
2023/07/03 03:37:13;;;;;;;;;;;;;;;;;;5053188;28;20091;-84
2023/07/03 03:39:39;;;;;;;25.17;7.38;;;;;;;;;;5069348;28;20373;-84
2023/07/03 03:42:05;;;;;;;;;;;;;;;;;;5053238;28;20090;-84
2023/07/03 03:44:31;;;;;;;33.75;6.93;;;;;;;;;;5066840;28;19956;-84
2023/07/03 03:46:57;;;;;;;21.30;5.90;;;;;;;;;;5049437;28;20052;-83
2023/07/03 03:49:24;;;;;;;27.55;6.18;;;;;;;;;;5048090;28;20048;-83
2023/07/03 03:51:50;;;;;;;25.90;6.25;;;;;;;;;;5032618;28;20044;-84
2023/07/03 03:54:16;;;;;;;20.48;5.75;;;;;;;;;;5051750;28;20045;-83
2023/07/03 03:56:42;;;;;;;26.95;6.28;;;;;;;;;;5063751;28;20056;-83
2023/07/03 03:59:08;;;;;;;29.95;6.32;;;;;;;;;;5048931;28;20558;-84
2023/07/03 04:01:34;;;;;;;25.33;6.75;;;;;;;;;;5065861;28;20486;-83
2023/07/03 04:04:00;;;;;;;;;;;;;;;;;;5048808;28;20056;-84
2023/07/03 04:06:26;;;;;;;22.08;5.40;;;;;;;;;;5048856;28;19924;-82
2023/07/03 04:08:53;;;;;;;23.52;5.38;;;;;;;;;;5068840;28;20045;-84
2023/07/03 04:11:19;;;;;;;21.98;5.85;;;;;;;;;;5052394;28;20048;-84
2023/07/03 04:13:45;;;;;;;23.55;6.03;;;;;;;;;;5051929;28;20556;-83
2023/07/03 04:16:11;;;;;;;;;;;;;;;;;;5036865;28;20057;-84
2023/07/03 04:18:37;;;;;;;24.33;5.85;;;;;;;;;;5051253;28;19943;-83
2023/07/03 04:21:03;;;;;;;24.40;6.32;;;;;;;;;;5034450;28;20407;-83
2023/07/03 04:23:29;;;;;;;;;;;;;;;;;;5051703;28;20512;-83
2023/07/03 04:25:55;;;;;;;20.02;6.13;;;;;;;;;;5052665;28;20352;-84
2023/07/03 04:28:22;;;;;;;24.85;5.45;;;;;;;;;;5059297;28;20040;-83
2023/07/03 04:30:49;;;;;;;22.23;5.63;;;;;;;;;;5069405;28;20045;-83
2023/07/03 04:33:15;;;;;;;20.52;5.88;;;;;;;;;;5068304;28;20056;-82
2023/07/03 04:35:41;;;;;;;22.70;5.35;;;;;;;;;;5038341;28;20084;-83
2023/07/03 04:38:07;;;;;;;19.92;5.10;;;;;;;;;;5055422;28;20040;-82
2023/07/03 04:40:34;;;;;;;21.13;5.32;;;;;;;;;;5071725;28;20048;-83
2023/07/03 04:43:00;;;;;;;24.40;5.88;;;;;;;;;;5069202;28;20044;-83
2023/07/03 04:45:26;;;;;;;;;;;;;;;;;;5072597;28;20083;-83
2023/07/03 04:47:53;;;;;;;20.95;6.03;;;;;;;;;;5055082;28;20005;-83
2023/07/03 04:50:24;;;;;;;24.60;5.50;;;;;;;;;;5055403;28;20055;-82
2023/07/03 04:52:51;;;;;;;21.88;5.32;;;;;;;;;;5045730;28;20056;-83
2023/07/03 04:55:18;;;;;;;18.35;5.72;;;;;;;;;;5071566;28;20481;-81
2023/07/03 04:57:44;;;;;;;17.85;5.13;;;;;;;;;;5055605;28;20090;-83
2023/07/03 05:00:14;;;;;;;22.58;5.90;;;;;;;;;;5063861;28;20053;-82
2023/07/03 05:02:44;;;;;;;20.27;4.97;;;;;;;;;;5070209;28;20513;-83
2023/07/03 05:05:11;;;;;;;19.58;4.60;;;;;;;;;;5055430;28;20051;-82
2023/07/03 05:07:37;;;;;;;25.55;4.93;;;;;;;;;;5051927;28;20049;-83
2023/07/03 05:10:04;;;;;;;19.10;4.40;;;;;;;;;;5071405;28;20047;-82
2023/07/03 05:12:30;;;;;;;;;;;;;;;;;;5059296;28;20397;-82
2023/07/03 05:14:56;;;;;;;19.67;4.72;;;;;;;;;;5051353;28;19921;-82
2023/07/03 05:17:23;;;;;;;15.60;4.15;;;;;;;;;;5035136;28;20136;-83
2023/07/03 05:19:49;;;;;;;20.77;4.57;;;;;;;;;;5051134;28;20052;-83
2023/07/03 05:22:15;;;;;;;16.75;3.88;;;;;;;;;;5071974;28;20044;-83
2023/07/03 05:24:41;;;;;;;16.55;4.00;;;;;;;;;;5054304;28;20109;-84
2023/07/03 05:27:07;;;;;;;;;;;;;;;;;;5055433;28;20568;-84
2023/07/03 05:29:33;;;;;;;16.15;4.13;;;;;;;;;;5069090;28;20006;-84
2023/07/03 05:32:02;;;;;;;22.15;4.97;;;;;;;;;;5071928;28;20488;-84
2023/07/03 05:34:29;;;;;;;17.98;4.10;;;;;;;;;;5053836;28;20497;-83
2023/07/03 05:36:57;;;;;;;16.92;3.42;;;;;;;;;;5060836;28;20041;-83
2023/07/03 05:39:24;;;;;;;16.35;3.88;;;;;;;;;;5037656;28;20056;-82
2023/07/03 05:41:50;;;;;;;18.70;4.30;;;;;;;;;;5055003;28;20071;-84
2023/07/03 05:44:17;;;;;;;;;;;;;;;;;;5071311;28;20040;-83
2023/07/03 05:46:43;;;;;;;18.73;4.10;;;;;;;;;;5054144;28;19916;-84
2023/07/03 05:49:10;;;;;;;21.70;4.45;;;;;;;;;;5070551;28;20047;-84
2023/07/03 05:51:36;;;;;;;22.75;4.82;;;;;;;;;;5053101;28;20047;-84
2023/07/03 05:54:02;;;;;;;17.30;4.32;;;;;;;;;;5050295;28;20045;-83
2023/07/03 05:56:28;;;;;;;;;;;;;;;;;;5054357;28;20047;-84
2023/07/03 05:58:55;;;;;;;20.55;4.05;;;;;;;;;;5055336;28;20014;-83
2023/07/03 06:01:21;;;;;;;13.88;3.72;;;;;;;;;;5054527;28;20049;-83
2023/07/03 06:03:47;;;;;;;15.85;3.47;;;;;;;;;;5069512;28;20053;-83
2023/07/03 06:06:14;;;;;;;17.42;3.47;;;;;;;;;;5054589;28;20091;-83
2023/07/03 06:08:40;;;;;;;15.98;4.05;;;;;;;;;;5069636;28;20055;-83
2023/07/03 06:11:06;;;;;;;12.77;3.35;;;;;;;;;;5069961;28;20509;-83
2023/07/03 06:13:32;;;;;;;;;;;;;;;;;;5052030;28;20131;-83
2023/07/03 06:15:58;;;;;;;12.85;3.00;;;;;;;;;;5053270;28;19999;-81
2023/07/03 06:18:24;;;;;;;;;;;;;;;;;;5053906;28;20094;-82
2023/07/03 06:20:50;;;;;;;13.65;3.10;;;;;;;;;;5050293;28;19932;-78
2023/07/03 06:23:16;;;;;;;;;;;;;;;;;;5058578;28;20123;-80
2023/07/03 06:25:43;;;;;;;14.15;3.05;;;;;;;;;;5069636;28;19925;-79
2023/07/03 06:28:09;;;;;;;12.95;2.65;;;;;;;;;;5053711;28;20051;-81
2023/07/03 06:30:35;;;;;;;;;;;;;;;;;;5054113;28;20052;-80
2023/07/03 06:33:01;;;;;;;10.88;2.60;;;;;;;;;;5053043;28;19935;-81
2023/07/03 06:35:27;;;;;;;16.92;2.58;;;;;;;;;;5053264;28;20056;-83
2023/07/03 06:37:53;;;;;;;;;;;;;;;;;;5070772;28;20068;-81
2023/07/03 06:40:19;;;;;;;12.00;2.95;;;;;;;;;;5053556;28;19970;-80
2023/07/03 06:42:45;;;;;;;10.35;2.78;;;;;;;;;;5052900;28;20040;-80
2023/07/03 06:45:11;;;;;;;;;;;;;;;;;;5049505;28;20052;-80
2023/07/03 06:47:38;;;;;;;8.32;2.28;;;;;;;;;;5056402;28;19924;-83
2023/07/03 06:50:04;;;;;;;10.80;2.70;;;;;;;;;;5066398;28;20098;-80
2023/07/03 06:52:30;;;;;;;15.95;2.28;;;;;;;;;;5069719;28;20044;-81
2023/07/03 06:54:56;;;;;;;10.30;2.40;;;;;;;;;;5069700;28;20048;-80
2023/07/03 06:57:22;;;;;;;;;;;;;;;;;;5068424;28;20087;-80
2023/07/03 06:59:50;;;;;;;13.40;2.50;;;;;;;;;;5052549;28;20205;-78
2023/07/03 07:02:16;;;;;;;11.60;2.45;;;;;;;;;;5053385;28;20070;-81
2023/07/03 07:04:44;;;;;;;;;;;;;;;;;;5052562;28;20123;-80
2023/07/03 07:07:10;;;;;;;10.93;2.20;;;;;;;;;;5070031;28;19979;-80
2023/07/03 07:09:36;;;;;;;;;;;;;;;;;;5069401;28;20056;-80
2023/07/03 07:12:02;;;;;;;7.95;2.03;;;;;;;;;;5050109;28;19932;-80
2023/07/03 07:14:28;;;;;;;;;;;;;;;;;;5049602;28;20057;-81
2023/07/03 07:16:54;;;;;;;8.77;2.28;;;;;;;;;;5033197;28;20289;-80
2023/07/03 07:19:20;;;;;;;;;;;;;;;;;;5049360;28;20045;-81
2023/07/03 07:21:46;;;;;;;9.70;2.53;;;;;;;;;;5035506;28;19924;-80
2023/07/03 07:24:13;;;;;;;10.73;2.25;;;;;;;;;;5032786;28;20056;-82
2023/07/03 07:26:39;;;;;;;12.68;2.53;;;;;;;;;;5056754;28;20135;-83
2023/07/03 07:29:05;;;;;;;;;;;;;;;;;;5062671;28;20478;-82
2023/07/03 07:31:32;;;;;;;12.38;1.88;;;;;;;;;;5054894;28;19928;-87
2023/07/03 07:33:58;;;;;;;13.50;2.20;;;;;;;;;;5037290;28;20041;-83
2023/07/03 07:36:26;;;;;;;12.43;2.10;;;;;;;;;;5052975;28;20498;-83
2023/07/03 07:38:53;;;;;;;12.38;2.10;;;;;;;;;;5051908;28;20041;-83
2023/07/03 07:41:19;;;;;;;7.97;2.10;;;;;;;;;;5053089;28;20135;-85
2023/07/03 07:43:49;;;;;;;13.27;2.95;;;;;;;;;;5067249;28;20052;-84
2023/07/03 07:46:15;;;;;;;9.45;2.20;;;;;;;;;;5043865;28;20060;-84
2023/07/03 07:48:41;;;;;;;10.27;2.20;;;;;;;;;;5048508;28;20111;-85
2023/07/03 07:51:07;;;;;;;;;;;;;;;;;;5053447;28;20402;-87
2023/07/03 07:53:33;;;;;;;13.82;2.10;;;;;;;;;;5056056;28;19930;-85
2023/07/03 07:55:59;;;;;;;10.75;2.08;;;;;;;;;;5052549;28;20078;-86
2023/07/03 07:58:26;;;;;;;9.32;2.67;;;;;;;;;;5052772;28;20485;-84
2023/07/03 08:00:53;;;;;;;11.68;2.70;;;;;;;;;;5052491;28;20060;-81
2023/07/03 08:03:19;;;;;;;14.75;2.60;;;;;;;;;;5051837;28;20040;-84
2023/07/03 08:05:45;;;;;;;8.63;2.47;;;;;;;;;;5050005;28;20082;-85
2023/07/03 08:08:11;;;;;;;17.60;3.58;;;;;;;;;;5052629;28;20142;-85
2023/07/03 08:10:37;;;;;;;;;;;;;;;;;;5042784;28;20055;-84
2023/07/03 08:13:03;;;;;;;9.75;2.38;;;;;;;;;;5056876;28;19924;-85
2023/07/03 08:15:29;;;;;;;;;;;;;;;;;;5073278;28;20091;-85
2023/07/03 08:17:56;;;;;;;11.50;2.23;;;;;;;;;;5055429;28;19920;-84
2023/07/03 08:20:22;;;;;;;;;;;;;;;;;;5056881;28;20301;-84
2023/07/03 08:22:48;;;;;;;8.43;1.70;;;;;;;;;;5072509;28;19931;-85
2023/07/03 08:25:14;;;;;;;;;;;;;;;;;;5056351;28;20049;-84
2023/07/03 08:27:46;;;;;;;9.82;2.20;;;;;;;;;;5069379;28;19947;-84
2023/07/03 08:30:12;;;;;;;9.30;2.20;;;;;;;;;;5056466;28;20544;-85
2023/07/03 08:32:40;;;;;;;14.60;2.47;;;;;;;;;;5071740;28;20044;-84
2023/07/03 08:35:07;;;;;;;10.05;2.38;;;;;;;;;;5057816;28;20128;-84
2023/07/03 08:37:33;;;;;;;9.07;2.10;;;;;;;;;;5072762;28;20048;-85
2023/07/03 08:39:59;;;;;;;9.80;2.28;;;;;;;;;;5054805;28;20041;-84
2023/07/03 08:42:25;;;;;;;;;;;;;;;;;;5073062;28;20052;-84
2023/07/03 08:44:51;;;;;;;10.15;2.05;;;;;;;;;;5072137;28;20284;-85
2023/07/03 08:47:20;;;;;;;10.10;1.83;;;;;;;;;;5072923;28;20428;-84
2023/07/03 08:49:46;;;;;;;12.15;2.40;;;;;;;;;;5070080;28;20497;-84
2023/07/03 08:52:16;;;;;;;10.48;1.90;;;;;;;;;;5070899;28;21013;-83
2023/07/03 08:54:42;;;;;;;10.27;2.13;;;;;;;;;;5051507;28;20468;-83
2023/07/03 08:57:08;;;;;;;;;;;;;;;;;;5061318;28;20074;-84
2023/07/03 08:59:34;;;;;;;3.92;1.50;;;;;;;;;;5072196;28;19921;-85
2023/07/03 09:02:00;;;;;;;;;;;;;;;;;;5072331;28;20072;-84
2023/07/03 09:04:38;;;;;;;12.48;1.85;;;;;;;;;;5054592;28;19920;-84
2023/07/03 09:07:07;;;;;;;8.60;2.00;;;;;;;;;;5055828;28;20753;-84
2023/07/03 09:09:41;;;;;;;8.63;1.67;;;;;;;;;;5058788;28;20051;-84
2023/07/03 09:12:25;;;;;;;8.73;1.60;;;;;;;;;;5068212;28;20114;-82
2023/07/03 09:14:55;;;;;;;10.15;2.03;;;;;;;;;;5066932;28;20126;-83
2023/07/03 09:17:21;;;;;;;8.05;1.80;;;;;;;;;;5054421;28;20137;-83
2023/07/03 09:19:49;;;;;;;9.65;2.08;;;;;;;;;;5053165;28;20056;-82
2023/07/03 09:22:20;;;;;;;12.65;2.03;;;;;;;;;;5055290;28;20101;-81
2023/07/03 09:24:47;;;;;;;9.95;2.40;;;;;;;;;;5070886;28;20147;-83
2023/07/03 09:27:21;;;;;;;12.45;2.30;;;;;;;;;;5071379;28;20113;-85
2023/07/03 09:29:47;;;;;;;9.50;2.15;;;;;;;;;;5071946;28;20049;-83
2023/07/03 09:32:22;;;;;;;8.93;1.88;;;;;;;;;;5038171;28;20068;-83
2023/07/03 09:34:58;;;;;;;12.73;2.10;;;;;;;;;;5069471;28;20042;-84
2023/07/03 09:37:24;;;;;;;9.57;2.10;;;;;;;;;;5072186;28;20145;-84
2023/07/03 09:39:50;;;;;;;;;;;;;;;;;;5064002;28;20048;-88
2023/07/03 09:42:16;;;;;;;10.33;2.53;;;;;;;;;;5071321;28;19947;-81
2023/07/03 09:44:42;;;;;;;;;;;;;;;;;;5054734;28;20245;-84
2023/07/03 09:47:21;;;;;;;8.40;2.00;;;;;;;;;;5071768;28;19974;-84
2023/07/03 09:49:48;;;;;;;10.65;1.98;;;;;;;;;;5051880;28;20044;-82
2023/07/03 09:52:14;;;;;;;8.73;1.83;;;;;;;;;;5055201;28;20044;-85
2023/07/03 09:54:44;;;;;;;6.18;1.60;;;;;;;;;;5069868;28;20090;-84
2023/07/03 09:57:24;;;;;;;8.05;1.67;;;;;;;;;;5053965;28;20044;-84
2023/07/03 09:59:51;;;;;;;11.65;2.28;;;;;;;;;;5050699;28;20506;-83
2023/07/03 10:02:20;;;;;;;10.68;2.10;;;;;;;;;;5068808;28;20049;-84
2023/07/03 10:04:46;;;;;;;13.40;2.38;;;;;;;;;;5049508;28;20044;-83
2023/07/03 10:07:12;;;;;;;;;;;;;;;;;;5070234;28;20497;-84
2023/07/03 10:09:39;;;;;;;10.88;2.40;;;;;;;;;;5052895;28;19990;-84
2023/07/03 10:12:28;;;;;;;10.07;2.00;;;;;;;;;;5069538;28;20049;-83
2023/07/03 10:15:13;;;;;;;10.05;2.05;;;;;;;;;;5069018;28;20060;-85
2023/07/03 10:17:42;;;;;;;10.05;2.20;;;;;;;;;;5067439;28;20386;-86
2023/07/03 10:20:13;;;;;;;12.50;2.15;;;;;;;;;;5053418;28;20106;-86
2023/07/03 10:22:40;;;;;;;10.15;2.22;;;;;;;;;;5047927;28;20040;-87
2023/07/03 10:25:08;;;;;;;10.18;1.90;;;;;;;;;;5053153;28;20036;-86
2023/07/03 10:27:36;;;;;;;11.57;1.90;;;;;;;;;;5053275;28;20044;-86
2023/07/03 10:30:04;;;;;;;11.80;2.05;;;;;;;;;;5053520;28;20056;-87
2023/07/03 10:32:33;;;;;;;5.35;1.73;;;;;;;;;;5070001;28;20053;-86
2023/07/03 10:35:04;;;;;;;4.88;1.70;;;;;;;;;;5053113;28;20044;-86
2023/07/03 10:37:37;;;;;;;10.20;1.40;;;;;;;;;;5068991;28;20052;-86
2023/07/03 10:40:20;;;;;;;9.50;1.75;;;;;;;;;;5070685;28;20498;-88
2023/07/03 10:42:51;;;;;;;11.70;2.22;;;;;;;;;;5048363;28;20041;-86
2023/07/03 10:45:17;;;;;;;9.13;1.50;;;;;;;;;;5053927;28;20095;-89
2023/07/03 10:47:46;;;;;;;10.13;1.60;;;;;;;;;;5065673;28;20043;-86
2023/07/03 10:50:13;;;;;;;7.80;1.75;;;;;;;;;;5052091;28;20087;-87
2023/07/03 10:52:49;;;;;;;5.70;1.30;;;;;;;;;;5052728;28;20047;-87
2023/07/03 10:55:15;;;;;;;6.25;1.60;;;;;;;;;;5045515;28;20183;-86
2023/07/03 10:57:49;;;;;;;7.05;1.73;;;;;;;;;;5064945;28;20055;-86
2023/07/03 11:00:18;;;;;;;5.10;1.20;;;;;;;;;;5081356;28;20119;-87
2023/07/03 11:02:51;;;;;;;8.88;1.25;;;;;;;;;;5089443;28;20044;-88
2023/07/03 11:05:34;;;;;;;3.53;1.27;;;;;;;;;;5061056;28;20051;-88
2023/07/03 11:08:01;;;;;;;6.93;1.27;;;;;;;;;;5063797;28;20072;-87
2023/07/03 11:10:26;;;;;;;;;;;;;;;;;;5082528;28;20071;-87
2023/07/03 11:12:56;;;;;;;10.25;1.40;;;;;;;;;;5089033;28;19924;-85
2023/07/03 11:15:35;;;;;;;5.28;1.20;;;;;;;;;;5089580;28;20424;-87
2023/07/03 11:18:19;;;;;;;6.07;1.08;;;;;;;;;;5088327;28;20123;-86
2023/07/03 11:20:48;;;;;;;6.00;1.30;;;;;;;;;;5072863;28;20044;-86
2023/07/03 11:23:19;;;;;;;8.73;1.65;;;;;;;;;;5089544;28;20048;-86
2023/07/03 11:25:58;;;;;;;10.77;1.75;;;;;;;;;;5058631;28;20134;-85
2023/07/03 11:28:36;;;;;;;5.18;1.50;;;;;;;;;;5052054;28;20431;-86
2023/07/03 11:31:03;;;;;;;8.77;1.15;;;;;;;;;;5061370;28;20050;-85
2023/07/03 11:33:30;;;;;;;4.43;1.50;;;;;;;;;;5065104;28;20048;-85
2023/07/03 11:36:00;;;;;;;6.10;1.73;;;;;;;;;;5063564;28;20482;-85
2023/07/03 11:38:27;;;;;;;9.30;2.35;;;;;;;;;;5060962;28;20062;-84
2023/07/03 11:40:57;;;;;;;7.43;1.60;;;;;;;;;;5089332;28;20052;-83
2023/07/03 11:43:29;;;;;;;4.32;1.40;;;;;;;;;;5065081;28;20054;-82
2023/07/03 11:46:07;;;;;;;7.22;1.33;;;;;;;;;;5076271;28;20567;-83
2023/07/03 11:48:39;;;;;;;9.40;1.52;;;;;;;;;;5092695;28;20505;-81
2023/07/03 11:51:12;;;;;;;6.95;1.60;;;;;;;;;;5067098;28;20041;-83
2023/07/03 11:53:56;;;;;;;6.38;1.25;;;;;;;;;;5085475;28;20062;-83
2023/07/03 11:56:31;;;;;;;5.43;1.50;;;;;;;;;;5061467;28;20097;-82
2023/07/03 11:59:04;;;;;;;7.32;1.50;;;;;;;;;;5088917;28;20046;-80
2023/07/03 12:01:30;;;;;;;7.13;1.40;;;;;;;;;;5082636;28;20778;-83
2023/07/03 12:03:58;;;;;;;5.75;1.85;;;;;;;;;;5042791;28;20043;-82
2023/07/03 12:06:40;;;;;;;13.10;2.00;;;;;;;;;;5076585;28;20048;-82
2023/07/03 12:09:32;;;;;;;5.57;1.55;;;;;;;;;;5092179;28;20047;-82
2023/07/03 12:12:06;;;;;;;7.78;1.30;;;;;;;;;;5051142;28;20528;-82
2023/07/03 12:14:42;;;;;;;5.60;1.38;;;;;;;;;;5078699;28;20527;-82
2023/07/03 12:17:18;;;;;;;4.47;1.50;;;;;;;;;;5050793;28;20055;-82
2023/07/03 12:19:45;;;;;;;7.97;2.05;;;;;;;;;;5076803;28;20127;-85
2023/07/03 12:22:22;;;;;;;8.10;1.35;;;;;;;;;;5066547;28;20140;-83
2023/07/03 12:24:48;;;;;;;7.28;1.45;;;;;;;;;;5086647;28;20477;-84
2023/07/03 12:27:22;;;;;;;6.20;1.40;;;;;;;;;;5084224;28;20499;-84
2023/07/03 12:29:50;;;;;;;7.95;1.58;;;;;;;;;;5075366;28;20162;-83
2023/07/03 12:32:23;;;;;;;8.57;1.50;;;;;;;;;;5092439;28;20052;-84
2023/07/03 12:34:50;;;;;;;6.63;1.52;;;;;;;;;;5050437;28;20400;-85
2023/07/03 12:37:16;;;;;;;;;;;;;;;;;;5086391;28;20177;-85
2023/07/03 12:39:42;;;;;;;5.43;1.55;;;;;;;;;;5062737;28;19927;-85
2023/07/03 12:42:15;;;;;;;4.30;1.30;;;;;;;;;;5074059;28;20141;-85
2023/07/03 12:44:42;;;;;;;5.45;1.73;;;;;;;;;;5071821;28;20127;-84
2023/07/03 12:47:13;;;;;;;6.32;1.60;;;;;;;;;;5055224;28;20048;-87
2023/07/03 12:49:55;;;;;;;4.60;1.27;;;;;;;;;;5072156;28;20485;-87
2023/07/03 12:52:21;;;;;;;7.82;1.73;;;;;;;;;;5069040;28;20052;-86
2023/07/03 12:54:47;;;;;;;8.98;1.63;;;;;;;;;;5071037;28;20032;-87
2023/07/03 12:57:13;;;;;;;8.20;1.80;;;;;;;;;;5036218;28;20126;-87
2023/07/03 12:59:46;;;;;;;6.65;1.60;;;;;;;;;;5053514;28;20040;-87
2023/07/03 13:02:12;;;;;;;7.50;1.42;;;;;;;;;;5071927;28;20098;-86
2023/07/03 13:04:38;;;;;;;;;;;;;;;;;;5074165;28;20040;-87
2023/07/03 13:07:04;;;;;;;7.80;1.85;;;;;;;;;;5072511;28;19920;-86
2023/07/03 13:09:30;;;;;;;;;;;;;;;;;;5055436;28;20072;-86
2023/07/03 13:11:56;;;;;;;10.20;1.55;;;;;;;;;;5054967;28;19974;-86
2023/07/03 13:14:27;;;;;;;8.18;1.65;;;;;;;;;;5053499;28;20110;-86
2023/07/03 13:16:58;;;;;;;7.38;1.65;;;;;;;;;;5054496;28;20478;-85
2023/07/03 13:19:27;;;;;;;8.63;1.55;;;;;;;;;;5052324;28;20044;-86
2023/07/03 13:21:54;;;;;;;10.35;2.15;;;;;;;;;;5071478;28;20044;-86
2023/07/03 13:24:21;;;;;;;7.35;2.08;;;;;;;;;;5050191;28;20052;-85
2023/07/03 13:26:48;;;;;;;12.60;1.95;;;;;;;;;;5078824;28;20123;-86
2023/07/03 13:29:14;;;;;;;9.65;1.83;;;;;;;;;;5085501;28;20836;-86
2023/07/03 13:31:40;;;;;;;7.28;1.50;;;;;;;;;;5061945;28;20044;-86
2023/07/03 13:34:10;;;;;;;10.48;1.80;;;;;;;;;;5085906;28;20074;-85
2023/07/03 13:36:41;;;;;;;8.98;1.80;;;;;;;;;;5086797;28;20055;-86
2023/07/03 13:39:12;;;;;;;13.50;2.03;;;;;;;;;;5072915;28;20051;-84
2023/07/03 13:41:39;;;;;;;10.27;2.65;;;;;;;;;;5051662;28;20051;-86
2023/07/03 13:44:07;;;;;;;7.32;1.63;;;;;;;;;;5066963;28;20759;-86
2023/07/03 13:46:36;;;;;;;8.82;1.83;;;;;;;;;;5069742;28;20040;-86
2023/07/03 13:49:02;;;;;;;8.85;1.80;;;;;;;;;;5061858;28;20048;-86
2023/07/03 13:51:29;;;;;;;7.43;1.90;;;;;;;;;;5063812;28;20168;-85
2023/07/03 13:53:56;;;;;;;10.20;2.00;;;;;;;;;;5060800;28;20076;-86
2023/07/03 13:56:22;;;;;;;10.38;2.50;;;;;;;;;;5091084;28;20499;-85
2023/07/03 13:58:48;;;;;;;13.95;2.03;;;;;;;;;;5088835;28;20509;-85
2023/07/03 14:01:14;;;;;;;;;;;;;;;;;;5035170;28;20106;-86
2023/07/03 14:03:40;;;;;;;9.45;1.92;;;;;;;;;;5065602;28;20302;-86
2023/07/03 14:06:10;;;;;;;9.93;1.95;;;;;;;;;;5074856;28;20047;-86
2023/07/03 14:08:36;;;;;;;8.23;1.98;;;;;;;;;;5073844;28;20052;-86
2023/07/03 14:11:02;;;;;;;10.70;2.28;;;;;;;;;;5049822;28;20051;-87
2023/07/03 14:13:28;;;;;;;;;;;;;;;;;;5059302;28;20055;-87
2023/07/03 14:15:54;;;;;;;10.02;1.90;;;;;;;;;;5070222;28;19924;-87
2023/07/03 14:18:20;;;;;;;;;;;;;;;;;;5084558;28;20052;-87
2023/07/03 14:20:48;;;;;;;10.70;2.05;;;;;;;;;;5090888;28;20264;-86
2023/07/03 14:23:14;;;;;;;9.75;2.00;;;;;;;;;;5054404;28;20048;-85
2023/07/03 14:25:40;;;;;;;10.93;2.33;;;;;;;;;;5081828;28;20523;-84
2023/07/03 14:28:07;;;;;;;8.45;1.92;;;;;;;;;;5083155;28;20503;-87
2023/07/03 14:30:33;;;;;;;10.20;2.72;;;;;;;;;;5040174;28;20195;-84
2023/07/03 14:32:59;;;;;;;;;;;;;;;;;;5080227;28;20044;-87
2023/07/03 14:35:25;;;;;;;12.50;2.58;;;;;;;;;;5076249;28;19928;-85
2023/07/03 14:37:52;;;;;;;6.40;1.63;;;;;;;;;;5049806;28;20079;-84
2023/07/03 14:40:18;;;;;;;11.88;2.30;;;;;;;;;;5084112;28;20097;-84
2023/07/03 14:42:44;;;;;;;;;;;;;;;;;;5086827;28;20062;-80
2023/07/03 14:45:10;;;;;;;10.40;2.20;;;;;;;;;;5089331;28;19923;-81
2023/07/03 14:47:36;;;;;;;;;;;;;;;;;;5071709;28;20051;-82
2023/07/03 14:50:03;;;;;;;7.68;1.80;;;;;;;;;;5088969;28;19977;-81
2023/07/03 14:52:36;;;;;;;10.25;2.10;;;;;;;;;;5055727;28;20055;-82
2023/07/03 14:55:02;;;;;;;11.57;2.15;;;;;;;;;;5075827;28;20455;-82